Time;durP1;ratioP1;P1;durP2;ratioP2;P2;SDS_P1;SDS_P2;PMS_P1;PMS_P2;Temp;Humidity;BMP_temperature;BMP_pressure;BME280_temperature;BME280_humidity;BME280_pressure;Samples;Min_cycle;Max_cycle;Signal;HPM_P1;HPM_P2
2021/08/22 00:01:31;;;;;;;52.53;49.03;;;;;;;17.79;100.00;101503.67;1971890;73;31027;-75
2021/08/22 00:06:56;;;;;;;50.40;46.90;;;;;;;17.68;100.00;101506.71;1972153;73;31516;-75
2021/08/22 00:12:27;;;;;;;50.47;46.90;;;;;;;17.62;100.00;101502.38;1971933;73;31055;-75
2021/08/22 00:17:51;;;;;;;51.13;47.63;;;;;;;17.73;100.00;101503.79;1971904;73;31112;-75
2021/08/22 00:23:22;;;;;;;50.80;47.30;;;;;;;17.78;100.00;101508.45;1971934;73;30969;-75
2021/08/22 00:28:47;;;;;;;49.10;45.80;;;;;;;17.87;100.00;101500.09;1972210;73;31441;-75
2021/08/22 00:34:12;;;;;;;51.00;47.30;;;;;;;17.91;100.00;101500.55;1971931;73;31460;-73
2021/08/22 00:39:36;;;;;;;48.73;45.33;;;;;;;17.89;100.00;101500.02;1972091;73;30973;-75
2021/08/22 00:45:00;;;;;;;49.50;46.10;;;;;;;17.79;100.00;101503.67;1972068;73;30946;-75
2021/08/22 00:50:25;;;;;;;51.23;47.83;;;;;;;17.92;100.00;101507.84;1971923;73;30977;-75
2021/08/22 00:55:51;;;;;;;50.53;47.03;;;;;;;17.91;100.00;101503.36;1972136;73;31580;-75
2021/08/22 01:01:18;;;;;;;50.47;46.97;;;;;;;17.89;100.00;101507.05;1972017;73;31053;-75
2021/08/22 01:06:49;;;;;;;49.97;46.67;;;;;;;17.97;100.00;101508.29;1972116;73;31040;-75
2021/08/22 01:09:23;;;;;;;46.93;43.63;;;;;;;17.97;100.00;101512.51;1933473;74;24145;-75
2021/08/22 01:14:51;;;;;;;49.87;46.63;;;;;;;18.11;100.00;101504.25;1972172;73;31447;-75
2021/08/22 01:20:24;;;;;;;49.43;46.20;;;;;;;18.07;100.00;101513.64;1972104;73;31531;-78
2021/08/22 01:25:51;;;;;;;48.33;44.97;;;;;;;18.10;100.00;101516.64;1971939;73;30970;-78
2021/08/22 01:31:19;;;;;;;51.20;47.90;;;;;;;18.12;100.00;101508.73;1971911;73;31085;-75
2021/08/22 01:36:45;;;;;;;48.67;45.37;;;;;;;18.19;100.00;101507.69;1972223;73;31608;-76
2021/08/22 01:42:12;;;;;;;46.87;43.67;;;;;;;18.23;100.00;101508.48;1971827;73;31005;-75
2021/08/22 01:47:40;;;;;;;45.60;42.57;;;;;;;18.24;100.00;101505.89;1972037;73;30973;-75
2021/08/22 01:53:08;;;;;;;48.30;44.90;;;;;;;18.30;100.00;101499.83;1972090;73;31486;-75
2021/08/22 01:58:33;;;;;;;49.10;45.70;;;;;;;18.31;100.00;101505.72;1971855;72;30962;-75
2021/08/22 02:04:01;;;;;;;47.40;44.30;;;;;;;18.30;100.00;101509.67;1971872;73;30969;-75
2021/08/22 02:09:34;;;;;;;49.43;46.27;;;;;;;18.38;100.00;101510.88;1972021;73;33452;-75
2021/08/22 02:15:22;;;;;;;47.33;44.17;;;;;;;18.34;100.00;101514.08;2016076;71;30951;-78
2021/08/22 02:17:55;;;;;;;44.80;41.50;;;;;;;18.34;100.00;101524.76;1974265;72;24668;-76
2021/08/22 02:23:22;;;;;;;44.77;41.80;;;;;;;18.39;100.00;101519.58;1971994;73;31080;-77
2021/08/22 02:28:54;;;;;;;46.50;43.20;;;;;;;18.37;100.00;101520.46;1971972;73;30961;-75
2021/08/22 02:34:18;;;;;;;47.63;44.33;;;;;;;18.42;100.00;101520.33;1972086;73;30970;-75
2021/08/22 02:39:43;;;;;;;47.73;44.07;;;;;;;18.41;100.00;101520.91;1971867;73;31060;-75
2021/08/22 02:45:09;;;;;;;48.10;44.70;;;;;;;18.40;100.00;101519.84;1972169;73;31502;-76
2021/08/22 02:50:36;;;;;;;48.40;45.17;;;;;;;18.40;100.00;101521.25;1971849;73;31136;-75
2021/08/22 02:56:07;;;;;;;50.27;46.87;;;;;;;18.33;100.00;101518.88;1971986;73;31039;-75
2021/08/22 03:01:31;;;;;;;50.10;46.60;;;;;;;18.28;100.00;101530.81;1972204;73;31414;-78
2021/08/22 03:06:56;;;;;;;50.33;46.77;;;;;;;18.27;100.00;101529.18;1972176;73;33493;-78
2021/08/22 03:12:21;;;;;;;50.13;46.53;;;;;;;18.29;100.00;101530.52;1971861;73;30976;-75
2021/08/22 03:17:46;;;;;;;50.70;47.10;;;;;;;18.25;100.00;101539.34;1971932;73;31004;-75
2021/08/22 03:23:11;;;;;;;50.20;46.60;;;;;;;18.27;100.00;101543.25;1972143;73;31556;-75
2021/08/22 03:28:35;;;;;;;52.07;48.40;;;;;;;18.18;100.00;101549.61;1971856;73;30983;-75
2021/08/22 03:33:59;;;;;;;49.63;46.17;;;;;;;18.19;100.00;101552.69;1971844;72;31567;-74
2021/08/22 03:39:24;;;;;;;50.27;46.80;;;;;;;18.12;100.00;101555.69;1972028;73;31488;-74
2021/08/22 03:44:49;;;;;;;50.67;46.90;;;;;;;18.14;100.00;101554.81;1971853;73;31049;-75
2021/08/22 03:50:14;;;;;;;49.83;46.33;;;;;;;18.07;100.00;101548.22;1971964;73;30957;-75
2021/08/22 03:55:38;;;;;;;50.23;46.63;;;;;;;18.07;100.00;101548.22;1971828;73;30979;-75
2021/08/22 04:01:03;;;;;;;50.80;47.03;;;;;;;18.08;100.00;101551.29;1942207;73;39724;-75
2021/08/22 04:06:28;;;;;;;52.53;48.60;;;;;;;18.03;100.00;101550.00;1971858;73;30972;-75
2021/08/22 04:11:56;;;;;;;50.47;46.77;;;;;;;17.94;100.00;101551.91;1971952;73;33071;-76
2021/08/22 04:17:21;;;;;;;49.87;46.37;;;;;;;17.90;100.00;101560.72;1972021;73;33408;-75
2021/08/22 04:22:46;;;;;;;50.63;46.83;;;;;;;17.83;100.00;101569.34;1971856;73;31046;-75
2021/08/22 04:28:10;;;;;;;49.00;45.10;;;;;;;17.80;100.00;101572.19;1971913;73;30969;-75
2021/08/22 04:33:35;;;;;;;49.63;45.93;;;;;;;17.73;100.00;101576.02;1971851;73;31112;-75
2021/08/22 04:39:00;;;;;;;49.60;46.10;;;;;;;17.71;100.00;101580.53;1972055;73;33445;-75
2021/08/22 04:44:25;;;;;;;50.27;46.77;;;;;;;17.74;100.00;101588.92;1972108;73;31448;-75
2021/08/22 04:49:49;;;;;;;45.73;42.30;;;;;;;17.35;100.00;101600.70;1971890;73;33098;-75
2021/08/22 04:55:14;;;;;;;46.13;42.83;;;;;;;17.18;100.00;101617.33;1972042;73;31479;-75
2021/08/22 05:00:38;;;;;;;47.70;44.30;;;;;;;17.21;100.00;101606.87;1972088;73;31070;-75
2021/08/22 05:06:03;;;;;;;45.60;42.20;;;;;;;17.07;100.00;101611.06;1972045;73;33457;-75
2021/08/22 05:11:27;;;;;;;48.47;45.07;;;;;;;17.07;100.00;101617.28;1971888;73;31052;-74
2021/08/22 05:16:52;;;;;;;47.90;44.13;;;;;;;17.12;100.00;101621.37;1972093;73;31037;-75
2021/08/22 05:22:17;;;;;;;46.70;43.03;;;;;;;17.06;100.00;101629.64;1972137;73;33384;-75
2021/08/22 05:27:41;;;;;;;46.90;43.23;;;;;;;17.01;100.00;101637.59;1971854;73;32920;-74
2021/08/22 05:33:07;;;;;;;49.80;46.07;;;;;;;17.03;100.00;101648.52;1971920;73;31048;-75
2021/08/22 05:38:31;;;;;;;50.67;46.87;;;;;;;16.98;100.00;101652.25;1972000;73;31102;-75
2021/08/22 05:43:54;;;;;;;51.13;46.97;;;;;;;16.93;100.00;101663.56;1971845;73;32957;-75
2021/08/22 05:49:19;;;;;;;49.20;45.50;;;;;;;16.84;100.00;101680.84;1971909;73;32992;-75
2021/08/22 05:54:43;;;;;;;51.10;46.97;;;;;;;16.88;100.00;101694.52;1971953;73;31560;-75
2021/08/22 06:00:11;;;;;;;49.77;45.87;;;;;;;16.84;100.00;101692.06;1972093;73;31017;-73
2021/08/22 06:05:36;;;;;;;49.30;45.47;;;;;;;16.95;100.00;101706.17;1972093;72;32923;-75
2021/08/22 06:11:02;;;;;;;50.90;47.17;;;;;;;16.86;100.00;101706.61;1971923;73;32904;-75
2021/08/22 06:16:26;;;;;;;49.90;46.20;;;;;;;16.89;100.00;101724.83;1971932;73;31022;-75
2021/08/22 06:21:52;;;;;;;52.10;48.03;;;;;;;16.75;100.00;101724.77;1971986;73;31063;-74
2021/08/22 06:27:16;;;;;;;53.67;49.57;;;;;;;16.81;100.00;101729.17;1971877;73;33089;-74
2021/08/22 06:32:48;;;;;;;52.63;48.70;;;;;;;16.78;100.00;101739.02;1971924;73;30976;-75
2021/08/22 06:38:12;;;;;;;52.93;48.97;;;;;;;16.84;100.00;101734.16;1971876;73;32991;-75
2021/08/22 06:43:37;;;;;;;53.60;49.53;;;;;;;16.93;100.00;101741.31;1972066;73;33361;-75
2021/08/22 06:49:02;;;;;;;52.87;48.80;;;;;;;16.93;100.00;101743.55;1971875;73;32891;-75
2021/08/22 06:54:26;;;;;;;51.73;47.67;;;;;;;16.95;100.00;101748.84;1971868;73;33549;-75
2021/08/22 06:59:51;;;;;;;49.93;46.17;;;;;;;17.06;100.00;101748.38;1971856;73;32896;-74
2021/08/22 07:05:16;;;;;;;50.93;47.13;;;;;;;17.06;100.00;101753.16;1971901;73;33007;-75
2021/08/22 07:10:32;;;;;;;47.57;43.87;;;;;;;17.07;100.00;101761.26;1942072;72;32679;-73
2021/08/22 07:13:04;;;;;;;51.07;47.17;;;;;;;17.09;100.00;101768.81;1915358;75;26205;-73
2021/08/22 07:15:34;;;;;;;49.67;45.77;;;;;;;17.23;100.00;101775.89;1915251;75;26173;-75
2021/08/22 07:18:04;;;;;;;51.47;47.67;;;;;;;17.21;100.00;101771.97;1915278;75;26221;-75
2021/08/22 07:20:35;;;;;;;47.63;43.70;;;;;;;17.23;100.00;101780.09;1915285;75;26173;-75
2021/08/22 07:23:05;;;;;;;49.70;46.00;;;;;;;17.23;100.00;101780.09;1915365;75;26670;-75
2021/08/22 07:25:35;;;;;;;48.30;44.70;;;;;;;17.12;100.00;101783.63;1915466;75;26186;-75
2021/08/22 07:28:06;;;;;;;49.87;46.00;;;;;;;17.16;100.00;101784.69;1915235;75;26590;-75
2021/08/22 07:30:36;;;;;;;51.60;47.67;;;;;;;17.17;100.00;101785.52;1915233;75;24124;-75
2021/08/22 07:33:06;;;;;;;49.63;45.83;;;;;;;17.15;100.00;101783.05;1915364;75;26213;-75
2021/08/22 07:35:36;;;;;;;50.80;46.90;;;;;;;17.29;100.00;101789.52;1915379;75;26190;-74
2021/08/22 07:38:06;;;;;;;48.63;45.23;;;;;;;17.29;100.00;101789.52;1915383;75;24138;-75
2021/08/22 07:40:37;;;;;;;49.30;45.70;;;;;;;17.40;100.00;101790.75;1926608;73;26218;-75
2021/08/22 07:43:07;;;;;;;46.93;43.53;;;;;;;17.38;100.00;101790.21;1949058;73;26284;-75
2021/08/22 07:45:37;;;;;;;47.57;44.27;;;;;;;17.47;100.00;101793.41;1878458;76;24171;-75
2021/08/22 07:48:07;;;;;;;47.73;44.43;;;;;;;17.34;100.00;101791.41;1902398;75;24188;-75
2021/08/22 07:50:38;;;;;;;48.53;45.07;;;;;;;17.45;100.00;101796.28;1878465;76;26307;-75
2021/08/22 07:53:08;;;;;;;46.60;43.23;;;;;;;17.56;100.00;101792.13;1902289;75;24143;-75
2021/08/22 07:55:38;;;;;;;47.17;43.57;;;;;;;17.48;100.00;101796.50;1878434;76;24152;-75
2021/08/22 07:58:08;;;;;;;49.70;46.20;;;;;;;17.46;100.00;101801.57;1878450;76;24156;-75
2021/08/22 08:00:38;;;;;;;46.27;42.73;;;;;;;17.41;100.00;101800.85;1902298;75;26250;-75
2021/08/22 08:03:08;;;;;;;46.83;43.50;;;;;;;17.54;100.00;101800.05;1878457;76;24141;-75
2021/08/22 08:05:38;;;;;;;46.13;42.93;;;;;;;17.86;100.00;101801.42;1902301;75;26706;-75
2021/08/22 08:08:10;;;;;;;47.03;43.43;;;;;;;18.02;100.00;101808.97;1878471;76;24164;-75
2021/08/22 08:10:40;;;;;;;43.80;40.70;;;;;;;18.17;100.00;101812.89;1902050;74;24254;-75
2021/08/22 08:13:10;;;;;;;44.33;41.10;;;;;;;18.41;100.00;101799.98;1878462;76;26287;-75
2021/08/22 08:15:40;;;;;;;43.30;40.20;;;;;;;18.57;100.00;101804.15;1902241;75;24134;-75
2021/08/22 08:18:11;;;;;;;44.90;41.83;;;;;;;18.39;100.00;101814.39;1878528;76;24642;-75
2021/08/22 08:20:41;;;;;;;43.67;40.37;;;;;;;18.60;100.00;101812.82;1901897;75;24135;-75
2021/08/22 08:23:11;;;;;;;44.50;41.40;;;;;;;18.53;100.00;101815.20;1877897;76;24222;-75
2021/08/22 08:25:41;;;;;;;41.30;38.10;;;;;;;18.99;100.00;101809.94;1901684;75;24135;-75
2021/08/22 08:28:11;;;;;;;40.47;37.33;;;;;;;19.26;100.00;101818.83;1877980;76;24735;-79
2021/08/22 08:30:42;;;;;;;42.70;39.70;;;;;;;19.07;100.00;101810.59;1901607;75;24140;-80
2021/08/22 08:33:12;;;;;;;41.87;38.87;;;;;;;19.04;100.00;101814.85;1877869;76;24201;-80
2021/08/22 08:35:42;;;;;;;41.80;38.80;;;;;;;19.29;100.00;101812.58;1877854;76;26658;-78
2021/08/22 08:38:12;;;;;;;40.97;38.27;;;;;;;19.44;100.00;101819.24;1901834;75;24134;-80
2021/08/22 08:40:42;;;;;;;41.10;38.20;;;;;;;19.46;100.00;101826.24;1877991;76;24166;-80
2021/08/22 08:43:13;;;;;;;42.03;39.03;;;;;;;19.33;100.00;101829.93;1877903;76;24140;-80
2021/08/22 08:45:48;;;;;;;44.17;41.07;;;;;;;19.15;100.00;101838.55;1901746;75;26689;-79
2021/08/22 08:48:22;;;;;;;42.90;40.00;;;;;;;19.26;100.00;101837.14;1877863;76;24687;-80
2021/08/22 08:51:06;;;;;;;43.33;40.23;;;;;;;19.23;100.00;101834.40;1901606;75;24149;-79
2021/08/22 08:53:38;;;;;;;42.67;39.67;;;;;;;19.32;100.00;101833.05;1877854;76;24660;-80
2021/08/22 08:56:09;;;;;;;42.57;39.67;;;;;;;19.24;100.00;101833.83;1901562;75;24143;-80
2021/08/22 08:58:39;;;;;;;45.33;42.23;;;;;;;19.47;100.00;101836.91;1877807;76;24663;-80
2021/08/22 09:01:09;;;;;;;41.00;38.20;;;;;;;19.67;100.00;101848.25;1877867;76;24268;-80
2021/08/22 09:03:43;;;;;;;40.10;37.40;;;;;;;19.82;100.00;101852.89;1901771;75;26654;-80
2021/08/22 09:07:12;;;;;;;43.30;40.40;;;;;;;19.60;100.00;101856.31;1877818;76;24144;-80
2021/08/22 09:13:37;;;;;;;42.50;39.53;;;;;;;19.50;100.00;101856.85;1975614;70;30546;-76
2021/08/22 09:17:09;;;;;;;44.60;41.37;;;;;;;19.49;100.00;101872.09;1955393;73;24200;-77
2021/08/22 09:20:34;;;;;;;43.10;40.00;;;;;;;19.50;100.00;101868.13;1871976;77;24155;-77
2021/08/22 09:23:55;;;;;;;41.50;38.70;;;;;;;19.40;100.00;101878.20;1827867;78;24163;-74
2021/08/22 09:30:59;;;;;;;46.87;43.47;;;;;;;19.28;100.00;101882.75;1975882;70;30533;-78
2021/08/22 09:33:54;;;;;;;43.30;40.30;;;;;;;19.35;100.00;101885.94;1995567;72;24091;-78
2021/08/22 09:37:19;;;;;;;43.50;40.40;;;;;;;19.40;100.00;101888.64;1995474;72;24102;-78
2021/08/22 09:40:38;;;;;;;43.07;40.03;;;;;;;19.41;100.00;101886.92;1955289;73;24157;-77
2021/08/22 09:43:43;;;;;;;43.33;40.43;;;;;;;19.43;100.00;101895.91;1892963;72;24106;-77
2021/08/22 09:46:57;;;;;;;44.00;41.17;;;;;;;19.44;100.00;101908.84;1955347;73;24125;-76
2021/08/22 09:50:03;;;;;;;44.20;41.33;;;;;;;19.52;100.00;101903.86;1921407;74;26762;-76
2021/08/22 09:53:27;;;;;;;43.43;40.33;;;;;;;19.58;100.00;101909.37;1995572;72;24160;-76
2021/08/22 09:56:47;;;;;;;42.17;39.47;;;;;;;19.92;100.00;101904.80;1995549;72;24102;-77
2021/08/22 10:00:00;;;;;;;43.13;40.23;;;;;;;20.18;100.00;101906.92;1995600;72;24107;-75
2021/08/22 10:03:12;;;;;;;43.87;41.07;;;;;;;20.23;100.00;101913.84;1995847;72;24659;-76
2021/08/22 10:06:04;;;;;;;45.10;42.20;;;;;;;20.14;100.00;101912.97;1992001;72;24146;-75
2021/08/22 10:08:41;;;;;;;44.63;41.73;;;;;;;20.14;100.00;101913.80;1955323;73;24663;-76
2021/08/22 10:11:13;;;;;;;46.73;43.60;;;;;;;20.09;100.00;101911.69;1921464;74;24208;-74
2021/08/22 10:13:43;;;;;;;43.70;40.90;;;;;;;20.19;100.00;101908.59;1995542;72;24091;-74
2021/08/22 10:16:15;;;;;;;46.23;43.03;;;;;;;20.05;100.00;101905.03;1955488;73;24117;-76
2021/08/22 10:18:45;;;;;;;47.13;43.87;;;;;;;20.19;100.00;101912.83;1995916;72;24099;-75
2021/08/22 10:21:16;;;;;;;42.90;40.00;;;;;;;20.14;100.00;101908.73;1993702;72;24166;-76
2021/08/22 10:23:53;;;;;;;45.83;42.40;;;;;;;20.18;100.00;101908.34;1990473;71;24142;-76
2021/08/22 10:26:48;;;;;;;44.07;40.93;;;;;;;20.38;100.00;101911.45;1989574;72;24135;-76
2021/08/22 10:29:29;;;;;;;42.77;39.87;;;;;;;20.41;100.00;101907.96;1893917;75;24270;-76
2021/08/22 10:32:13;;;;;;;42.90;40.00;;;;;;;20.57;100.00;101905.55;1946556;73;24208;-74
2021/08/22 10:37:40;;;;;;;44.03;41.23;;;;;;;20.77;100.00;101898.45;1972126;73;31067;-76
2021/08/22 10:43:40;;;;;;;41.13;38.57;;;;;;;20.98;100.00;101902.89;1971915;73;31041;-77
2021/08/22 10:49:07;;;;;;;41.27;38.67;;;;;;;21.18;100.00;101900.89;1971971;73;30955;-78
2021/08/22 10:54:31;;;;;;;42.47;39.63;;;;;;;21.42;100.00;101895.56;1971969;73;30999;-77
2021/08/22 11:00:22;;;;;;;40.53;38.13;;;;;;;21.22;100.00;101906.93;1971961;73;30964;-76
2021/08/22 11:05:49;;;;;;;40.07;37.57;;;;;;;21.35;100.00;101902.28;1972035;73;30958;-77
2021/08/22 11:11:15;;;;;;;38.37;36.07;;;;;;;21.63;100.00;101902.77;1972007;73;30967;-77
2021/08/22 11:16:49;;;;;;;40.15;37.73;;;;;;;21.21;100.00;101908.12;1972045;73;31017;-77
2021/08/22 11:22:27;;;;;;;38.87;36.57;;;;;;;21.36;100.00;101915.25;1951929;73;30968;-76
2021/08/22 11:28:04;;;;;;;39.05;36.77;;;;;;;21.20;100.00;101911.27;1971976;73;30960;-76
2021/08/22 11:33:32;;;;;;;39.05;36.75;;;;;;;21.33;100.00;101930.06;1972101;73;30987;-76
2021/08/22 11:39:17;;;;;;;38.47;36.17;;;;;;;21.78;100.00;101929.11;1900715;75;31627;-78
2021/08/22 11:44:44;;;;;;;41.43;38.93;;;;;;;21.53;100.00;101935.63;1972038;73;31013;-77
2021/08/22 11:50:12;;;;;;;39.73;37.43;;;;;;;21.23;100.00;101949.58;1972196;73;30939;-75
2021/08/22 11:55:41;;;;;;;40.03;37.73;;;;;;;21.41;100.00;101953.84;1972256;73;31029;-77
2021/08/22 12:01:18;;;;;;;40.95;38.65;;;;;;;21.29;100.00;101955.34;1972047;73;30958;-76
2021/08/22 12:07:01;;;;;;;42.63;40.03;;;;;;;21.29;100.00;101961.56;1972235;73;31731;-77
2021/08/22 12:12:25;;;;;;;43.08;40.65;;;;;;;21.51;100.00;101964.83;1972020;73;30973;-77
2021/08/22 12:17:50;;;;;;;39.60;37.30;;;;;;;21.66;100.00;101966.56;1972225;73;33459;-73
2021/08/22 12:23:17;;;;;;;42.10;39.50;;;;;;;21.82;100.00;101968.32;1972025;73;30982;-76
2021/08/22 12:28:45;;;;;;;38.53;36.23;;;;;;;21.83;100.00;101978.45;1972206;73;30953;-75
2021/08/22 12:34:14;;;;;;;37.93;35.73;;;;;;;21.88;100.00;101976.03;1972030;73;31049;-77
2021/08/22 12:39:39;;;;;;;38.50;36.30;;;;;;;21.81;100.00;101980.80;1972242;73;30935;-77
2021/08/22 12:45:06;;;;;;;36.80;34.70;;;;;;;22.01;100.00;101972.22;1972014;73;30973;-73
2021/08/22 12:50:31;;;;;;;36.80;34.80;;;;;;;22.22;100.00;101978.25;1972272;72;30926;-75
2021/08/22 12:55:56;;;;;;;37.78;35.48;;;;;;;21.96;100.00;101984.55;1972034;73;31010;-76
2021/08/22 13:01:21;;;;;;;37.90;35.80;;;;;;;21.80;100.00;101991.27;1972078;73;31525;-75
2021/08/22 13:06:48;;;;;;;43.73;41.25;;;;;;;21.59;100.00;101994.52;1972107;73;30974;-76
2021/08/22 13:12:15;;;;;;;37.63;35.63;;;;;;;21.78;100.00;102001.23;1972023;73;30961;-76
2021/08/22 13:17:40;;;;;;;40.60;38.28;;;;;;;21.89;100.00;101998.92;1972008;73;31033;-77
2021/08/22 13:23:25;;;;;;;38.65;36.45;;;;;;;22.07;100.00;102003.44;2095275;67;30670;-75
2021/08/22 13:28:52;;;;;;;38.23;36.15;;;;;;;22.19;100.00;101998.75;1971968;73;30953;-76
2021/08/22 13:34:17;;;;;;;35.65;33.65;;;;;;;22.24;100.00;102001.98;1972030;73;30998;-76
2021/08/22 13:39:42;;;;;;;33.55;31.75;;;;;;;22.15;100.00;101999.76;1971967;73;31009;-77
2021/08/22 13:45:09;;;;;;;31.70;30.10;;;;;;;22.30;100.00;101996.95;1972285;73;31522;-78
2021/08/22 13:50:35;;;;;;;31.55;29.95;;;;;;;22.47;100.00;102003.98;1972058;73;30956;-78
2021/08/22 13:56:02;;;;;;;29.25;27.65;;;;;;;22.41;100.00;102012.44;1972082;73;31068;-76
2021/08/22 14:01:29;;;;;;;32.08;30.50;;;;;;;22.34;100.00;102008.69;1972327;72;30955;-76
2021/08/22 14:06:55;;;;;;;34.00;32.25;;;;;;;22.32;100.00;102016.70;1972242;73;30967;-76
2021/08/22 14:12:20;;;;;;;31.12;29.52;;;;;;;22.44;100.00;102014.59;1972081;73;30963;-75
2021/08/22 14:17:44;;;;;;;30.70;29.10;;;;;;;22.51;100.00;102019.14;1971974;73;31031;-76
2021/08/22 14:23:10;;;;;;;29.75;28.27;;;;;;;22.71;100.00;102011.38;1937154;74;31165;-78
2021/08/22 14:28:35;;;;;;;30.10;28.60;;;;;;;22.64;100.00;102019.52;1938532;74;31117;-78
2021/08/22 14:34:00;;;;;;;29.32;27.93;;;;;;;22.60;100.00;102027.02;1971986;73;31034;-76
2021/08/22 14:39:24;;;;;;;34.23;32.33;;;;;;;22.68;100.00;102021.33;1971988;73;31008;-78
2021/08/22 14:44:49;;;;;;;29.27;27.77;;;;;;;22.87;100.00;102020.96;1972004;73;30948;-76
2021/08/22 14:50:15;;;;;;;29.87;28.38;;;;;;;22.98;100.00;102027.06;1972275;73;31565;-76
2021/08/22 14:55:40;;;;;;;28.25;26.95;;;;;;;22.81;100.00;102022.31;1972267;73;30949;-78
2021/08/22 15:01:10;;;;;;;26.55;25.32;;;;;;;22.55;100.00;102022.37;1972239;73;31561;-78
2021/08/22 15:06:34;;;;;;;27.45;26.00;;;;;;;22.35;100.00;102020.84;1972295;73;31411;-76
2021/08/22 15:12:00;;;;;;;28.25;26.85;;;;;;;22.47;100.00;102022.40;1972185;73;31460;-76
2021/08/22 15:17:25;;;;;;;39.25;37.35;;;;;;;22.67;100.00;102028.77;1971991;73;30990;-78
2021/08/22 15:22:49;;;;;;;31.75;30.05;;;;;;;22.75;100.00;102019.44;1960274;71;31008;-78
2021/08/22 15:28:14;;;;;;;29.23;27.73;;;;;;;22.72;100.00;102023.54;1972217;73;31547;-76
2021/08/22 15:33:39;;;;;;;28.40;26.90;;;;;;;22.80;100.00;102034.84;1972280;73;31039;-75
2021/08/22 15:39:04;;;;;;;27.55;26.15;;;;;;;22.84;100.00;102032.98;1972207;73;31538;-78
2021/08/22 15:44:30;;;;;;;26.97;25.57;;;;;;;23.03;100.00;102032.55;1972215;73;30934;-75
2021/08/22 15:49:54;;;;;;;27.10;25.70;;;;;;;22.96;100.00;102032.26;1972021;73;30942;-78
2021/08/22 15:55:19;;;;;;;26.00;24.70;;;;;;;22.88;100.00;102041.05;1972224;73;31427;-73
2021/08/22 16:00:44;;;;;;;26.07;24.77;;;;;;;22.81;100.00;102044.97;1972035;73;30987;-78
2021/08/22 16:06:09;;;;;;;26.77;25.37;;;;;;;22.84;100.00;102036.40;1972249;73;31487;-76
2021/08/22 16:11:39;;;;;;;26.15;24.85;;;;;;;22.87;100.00;102045.62;1971992;73;30931;-76
2021/08/22 16:17:07;;;;;;;26.23;24.92;;;;;;;22.80;100.00;102043.34;1971976;73;30990;-78
2021/08/22 16:22:31;;;;;;;26.35;25.02;;;;;;;22.82;100.00;102038.14;1962057;71;31484;-76
2021/08/22 16:27:56;;;;;;;26.00;24.70;;;;;;;22.79;100.00;102045.08;1971902;73;31054;-78
2021/08/22 16:33:21;;;;;;;25.23;23.93;;;;;;;22.79;100.00;102051.58;1972319;73;31480;-78
2021/08/22 16:38:47;;;;;;;25.85;24.55;;;;;;;22.77;100.00;102048.24;1972078;73;31451;-76
2021/08/22 16:44:11;;;;;;;26.33;25.02;;;;;;;22.78;100.00;102056.99;1972116;73;31461;-78
2021/08/22 16:49:36;;;;;;;25.32;24.02;;;;;;;22.82;100.00;102055.14;1972098;73;31566;-78
2021/08/22 16:55:03;;;;;;;25.30;24.05;;;;;;;22.87;100.00;102039.38;1972145;73;31555;-77
2021/08/22 17:00:28;;;;;;;24.98;23.77;;;;;;;23.09;100.00;102064.63;1971958;73;30963;-75
2021/08/22 17:05:53;;;;;;;26.85;25.55;;;;;;;23.15;100.00;102072.33;1971914;73;31441;-72
2021/08/22 17:11:17;;;;;;;30.27;28.57;;;;;;;23.14;100.00;102075.78;1971801;73;30927;-72
2021/08/22 17:16:42;;;;;;;26.82;25.43;;;;;;;22.91;100.00;102086.28;1971963;72;31424;-72
2021/08/22 17:22:09;;;;;;;29.52;28.02;;;;;;;22.87;100.00;102092.38;1971766;73;30991;-69
2021/08/22 17:27:34;;;;;;;30.15;28.55;;;;;;;22.58;100.00;102108.69;1938482;74;31123;-78
2021/08/22 17:33:00;;;;;;;34.27;32.48;;;;;;;22.18;100.00;102118.80;1971860;73;31507;-66
2021/08/22 17:38:26;;;;;;;38.67;36.68;;;;;;;21.66;100.00;102132.59;1971852;73;31018;-67
2021/08/22 17:43:51;;;;;;;40.58;38.38;;;;;;;21.39;100.00;102132.86;1971682;73;31135;-67
2021/08/22 17:49:16;;;;;;;43.63;41.33;;;;;;;21.26;100.00;102136.06;1971734;73;31019;-66
2021/08/22 17:54:42;;;;;;;43.00;40.70;;;;;;;21.26;100.00;102137.47;1905985;75;31135;-78
2021/08/22 18:00:15;;;;;;;43.40;41.10;;;;;;;21.20;100.00;102140.17;1971896;73;30976;-66
2021/08/22 18:05:39;;;;;;;43.08;40.67;;;;;;;21.13;100.00;102158.19;1971697;73;31098;-72
2021/08/22 18:11:07;;;;;;;45.80;43.38;;;;;;;20.97;100.00;102171.84;1971917;73;31106;-72
2021/08/22 18:16:33;;;;;;;46.00;43.50;;;;;;;20.94;100.00;102173.91;1971901;73;31440;-68
2021/08/22 18:22:00;;;;;;;46.77;44.17;;;;;;;20.84;100.00;102176.42;1954485;72;31585;-73
2021/08/22 18:27:25;;;;;;;46.35;43.75;;;;;;;20.80;100.00;102186.70;1971754;73;31040;-69
2021/08/22 18:32:49;;;;;;;45.93;43.33;;;;;;;20.78;100.00;102200.90;1971921;73;30995;-69
2021/08/22 18:38:34;;;;;;;46.47;43.87;;;;;;;20.68;100.00;102207.62;2016364;71;30886;-78
2021/08/22 18:44:01;;;;;;;46.33;43.63;;;;;;;20.58;100.00;102207.06;1971774;73;30977;-70
2021/08/22 18:49:25;;;;;;;48.77;45.87;;;;;;;20.45;100.00;102211.61;1971677;73;31052;-73
2021/08/22 18:54:50;;;;;;;47.40;44.67;;;;;;;20.50;100.00;102221.91;1971638;73;31040;-70
2021/08/22 19:00:17;;;;;;;45.90;43.10;;;;;;;20.43;100.00;102236.48;1971886;73;31060;-69
2021/08/22 19:05:42;;;;;;;47.17;44.27;;;;;;;20.51;100.00;102236.30;1971884;73;30986;-71
2021/08/22 19:11:10;;;;;;;46.27;43.40;;;;;;;20.50;100.00;102245.91;1971791;73;31049;-71
2021/08/22 19:16:54;;;;;;;46.63;43.83;;;;;;;20.48;100.00;102258.12;2014371;71;31405;-71
2021/08/22 19:22:19;;;;;;;47.70;44.80;;;;;;;20.33;100.00;102277.64;1962535;71;31051;-71
2021/08/22 19:28:04;;;;;;;48.10;45.20;;;;;;;20.15;100.00;102294.92;2016125;71;30891;-72
2021/08/22 19:33:50;;;;;;;47.80;44.60;;;;;;;20.15;100.00;102304.80;2015487;71;30949;-71
2021/08/22 19:39:35;;;;;;;47.40;44.17;;;;;;;20.15;100.00;102315.28;2015930;71;30952;-71
2021/08/22 19:45:00;;;;;;;48.43;45.30;;;;;;;20.17;100.00;102322.84;1971969;73;31527;-78
2021/08/22 19:50:26;;;;;;;49.70;46.50;;;;;;;20.14;100.00;102345.47;1972438;73;31472;-79
2021/08/22 19:56:15;;;;;;;47.70;44.50;;;;;;;19.87;100.00;102356.73;2016458;71;30859;-76
2021/08/22 20:01:36;;;;;;;46.23;43.13;;;;;;;19.77;100.00;102371.01;1971787;73;30963;-75
2021/08/22 20:07:01;;;;;;;45.10;42.00;;;;;;;20.05;100.00;102376.97;1971789;72;30998;-79
2021/08/22 20:12:26;;;;;;;45.37;42.37;;;;;;;20.15;100.00;102385.21;1971739;73;30965;-67
2021/08/22 20:17:51;;;;;;;50.58;47.45;;;;;;;20.20;100.00;102385.69;1971767;73;30959;-70
2021/08/22 20:23:16;;;;;;;50.93;47.73;;;;;;;20.17;100.00;102389.14;2069979;69;31425;-70
2021/08/22 20:28:41;;;;;;;50.30;47.03;;;;;;;20.08;100.00;102401.73;1971754;73;30989;-75
2021/08/22 20:34:06;;;;;;;51.07;47.87;;;;;;;20.02;100.00;102392.28;1971918;73;30967;-71
2021/08/22 20:39:35;;;;;;;52.50;49.30;;;;;;;19.97;100.00;102402.52;1971950;73;30961;-72
2021/08/22 20:45:01;;;;;;;51.33;48.03;;;;;;;19.97;100.00;102401.11;1971717;73;31019;-75
2021/08/22 20:50:26;;;;;;;52.53;49.23;;;;;;;19.88;100.00;102408.61;1971758;73;31061;-73
2021/08/22 20:55:50;;;;;;;53.20;49.80;;;;;;;19.82;100.00;102405.60;1971797;73;31007;-76
2021/08/22 21:01:14;;;;;;;52.93;49.63;;;;;;;19.78;100.00;102411.60;1971813;73;30992;-72
2021/08/22 21:06:39;;;;;;;51.57;48.27;;;;;;;19.76;100.00;102414.48;1972010;73;31017;-67
2021/08/22 21:12:10;;;;;;;51.30;48.10;;;;;;;19.74;100.00;102416.76;1971774;73;31034;-71